sensor_id;sensor_type;location;lat;lon;timestamp;P1;durP1;ratioP1;P2;durP2;ratioP2
13933;SDS011;7039;52.168;9.866;2022-08-14T00:00:19;12.33;;;8.33;;
13933;SDS011;7039;52.168;9.866;2022-08-14T00:02:46;8.90;;;8.00;;
13933;SDS011;7039;52.168;9.866;2022-08-14T00:05:14;8.77;;;7.87;;
13933;SDS011;7039;52.168;9.866;2022-08-14T00:07:42;9.40;;;8.00;;
13933;SDS011;7039;52.168;9.866;2022-08-14T00:10:11;9.57;;;8.23;;
13933;SDS011;7039;52.168;9.866;2022-08-14T00:12:39;10.00;;;8.57;;
13933;SDS011;7039;52.168;9.866;2022-08-14T00:15:12;9.27;;;8.33;;
13933;SDS011;7039;52.168;9.866;2022-08-14T00:17:42;14.10;;;9.50;;
13933;SDS011;7039;52.168;9.866;2022-08-14T00:20:09;12.37;;;8.87;;
13933;SDS011;7039;52.168;9.866;2022-08-14T00:22:37;10.47;;;9.03;;
13933;SDS011;7039;52.168;9.866;2022-08-14T00:25:04;11.23;;;9.10;;
13933;SDS011;7039;52.168;9.866;2022-08-14T00:27:31;12.33;;;8.53;;
13933;SDS011;7039;52.168;9.866;2022-08-14T00:29:57;10.63;;;9.33;;
13933;SDS011;7039;52.168;9.866;2022-08-14T00:32:24;9.80;;;8.80;;
13933;SDS011;7039;52.168;9.866;2022-08-14T00:34:52;10.00;;;8.50;;
13933;SDS011;7039;52.168;9.866;2022-08-14T00:37:20;12.57;;;8.43;;
13933;SDS011;7039;52.168;9.866;2022-08-14T00:39:47;9.37;;;8.00;;
13933;SDS011;7039;52.168;9.866;2022-08-14T00:42:13;9.80;;;8.80;;
13933;SDS011;7039;52.168;9.866;2022-08-14T00:44:44;9.23;;;8.27;;
13933;SDS011;7039;52.168;9.866;2022-08-14T00:47:12;9.57;;;8.57;;
13933;SDS011;7039;52.168;9.866;2022-08-14T00:49:39;11.40;;;9.13;;
13933;SDS011;7039;52.168;9.866;2022-08-14T00:52:07;9.50;;;8.50;;
13933;SDS011;7039;52.168;9.866;2022-08-14T00:54:33;10.17;;;8.83;;
13933;SDS011;7039;52.168;9.866;2022-08-14T00:57:03;13.57;;;9.53;;
13933;SDS011;7039;52.168;9.866;2022-08-14T00:59:30;10.13;;;8.63;;
13933;SDS011;7039;52.168;9.866;2022-08-14T01:01:57;12.40;;;9.37;;
13933;SDS011;7039;52.168;9.866;2022-08-14T01:04:26;10.10;;;9.10;;
13933;SDS011;7039;52.168;9.866;2022-08-14T01:06:56;11.67;;;9.37;;
13933;SDS011;7039;52.168;9.866;2022-08-14T01:09:26;10.70;;;9.33;;
13933;SDS011;7039;52.168;9.866;2022-08-14T01:11:54;12.37;;;9.07;;
13933;SDS011;7039;52.168;9.866;2022-08-14T01:14:22;10.17;;;8.23;;
13933;SDS011;7039;52.168;9.866;2022-08-14T01:16:48;9.93;;;8.90;;
13933;SDS011;7039;52.168;9.866;2022-08-14T01:19:15;12.07;;;9.00;;
13933;SDS011;7039;52.168;9.866;2022-08-14T01:22:08;8.47;;;7.67;;
13933;SDS011;7039;52.168;9.866;2022-08-14T01:24:36;9.17;;;8.27;;
13933;SDS011;7039;52.168;9.866;2022-08-14T01:27:02;10.60;;;8.33;;
13933;SDS011;7039;52.168;9.866;2022-08-14T01:29:29;10.53;;;8.13;;
13933;SDS011;7039;52.168;9.866;2022-08-14T01:32:01;9.60;;;8.60;;
13933;SDS011;7039;52.168;9.866;2022-08-14T01:34:29;9.43;;;8.40;;
13933;SDS011;7039;52.168;9.866;2022-08-14T01:36:57;10.50;;;8.73;;
13933;SDS011;7039;52.168;9.866;2022-08-14T01:39:25;9.13;;;8.27;;
13933;SDS011;7039;52.168;9.866;2022-08-14T01:41:51;9.47;;;8.20;;
13933;SDS011;7039;52.168;9.866;2022-08-14T01:44:20;9.80;;;8.80;;
13933;SDS011;7039;52.168;9.866;2022-08-14T01:46:52;9.77;;;8.83;;
13933;SDS011;7039;52.168;9.866;2022-08-14T01:49:22;11.60;;;8.83;;
13933;SDS011;7039;52.168;9.866;2022-08-14T01:51:50;9.33;;;8.43;;
13933;SDS011;7039;52.168;9.866;2022-08-14T01:54:21;10.40;;;9.27;;
13933;SDS011;7039;52.168;9.866;2022-08-14T01:56:51;9.63;;;8.60;;
13933;SDS011;7039;52.168;9.866;2022-08-14T01:59:21;10.37;;;8.60;;
13933;SDS011;7039;52.168;9.866;2022-08-14T02:01:56;14.90;;;9.20;;
13933;SDS011;7039;52.168;9.866;2022-08-14T02:04:24;11.73;;;9.50;;
13933;SDS011;7039;52.168;9.866;2022-08-14T02:06:53;10.07;;;8.43;;
13933;SDS011;7039;52.168;9.866;2022-08-14T02:09:20;10.03;;;8.87;;
13933;SDS011;7039;52.168;9.866;2022-08-14T02:11:47;11.17;;;8.20;;
13933;SDS011;7039;52.168;9.866;2022-08-14T02:14:16;10.30;;;8.53;;
13933;SDS011;7039;52.168;9.866;2022-08-14T02:16:44;10.70;;;8.90;;
13933;SDS011;7039;52.168;9.866;2022-08-14T02:19:15;12.60;;;9.13;;
13933;SDS011;7039;52.168;9.866;2022-08-14T02:21:44;11.77;;;10.00;;
13933;SDS011;7039;52.168;9.866;2022-08-14T02:24:12;11.13;;;9.97;;
13933;SDS011;7039;52.168;9.866;2022-08-14T02:26:41;13.13;;;10.33;;
13933;SDS011;7039;52.168;9.866;2022-08-14T02:29:13;14.43;;;10.73;;
13933;SDS011;7039;52.168;9.866;2022-08-14T02:31:44;16.07;;;10.87;;
13933;SDS011;7039;52.168;9.866;2022-08-14T02:34:14;12.50;;;10.33;;
13933;SDS011;7039;52.168;9.866;2022-08-14T02:36:43;11.20;;;9.20;;
13933;SDS011;7039;52.168;9.866;2022-08-14T02:39:11;10.30;;;9.30;;
13933;SDS011;7039;52.168;9.866;2022-08-14T02:41:39;11.13;;;9.93;;
13933;SDS011;7039;52.168;9.866;2022-08-14T02:44:06;10.33;;;9.33;;
13933;SDS011;7039;52.168;9.866;2022-08-14T02:46:35;12.47;;;10.70;;
13933;SDS011;7039;52.168;9.866;2022-08-14T02:49:03;12.20;;;10.63;;
13933;SDS011;7039;52.168;9.866;2022-08-14T02:51:30;11.57;;;9.97;;
13933;SDS011;7039;52.168;9.866;2022-08-14T02:53:58;13.67;;;10.33;;
13933;SDS011;7039;52.168;9.866;2022-08-14T02:56:25;11.70;;;10.43;;
13933;SDS011;7039;52.168;9.866;2022-08-14T02:58:54;11.90;;;9.93;;
13933;SDS011;7039;52.168;9.866;2022-08-14T03:01:25;10.00;;;9.00;;
13933;SDS011;7039;52.168;9.866;2022-08-14T03:03:53;11.23;;;10.00;;
13933;SDS011;7039;52.168;9.866;2022-08-14T03:06:22;13.27;;;10.50;;
13933;SDS011;7039;52.168;9.866;2022-08-14T03:08:49;13.67;;;11.57;;
13933;SDS011;7039;52.168;9.866;2022-08-14T03:11:16;13.77;;;10.37;;
13933;SDS011;7039;52.168;9.866;2022-08-14T03:13:44;12.43;;;10.10;;
13933;SDS011;7039;52.168;9.866;2022-08-14T03:16:12;13.07;;;10.07;;
13933;SDS011;7039;52.168;9.866;2022-08-14T03:18:41;11.97;;;9.77;;
13933;SDS011;7039;52.168;9.866;2022-08-14T03:21:09;13.40;;;10.43;;
13933;SDS011;7039;52.168;9.866;2022-08-14T03:23:39;13.07;;;9.37;;
13933;SDS011;7039;52.168;9.866;2022-08-14T03:26:06;12.07;;;8.90;;
13933;SDS011;7039;52.168;9.866;2022-08-14T03:28:34;10.73;;;9.63;;
13933;SDS011;7039;52.168;9.866;2022-08-14T03:31:04;11.07;;;9.60;;
13933;SDS011;7039;52.168;9.866;2022-08-14T03:33:31;11.33;;;9.33;;
13933;SDS011;7039;52.168;9.866;2022-08-14T03:36:01;14.60;;;10.87;;
13933;SDS011;7039;52.168;9.866;2022-08-14T03:38:32;9.40;;;8.43;;
13933;SDS011;7039;52.168;9.866;2022-08-14T03:41:04;10.67;;;8.87;;
13933;SDS011;7039;52.168;9.866;2022-08-14T03:43:38;14.70;;;9.63;;
13933;SDS011;7039;52.168;9.866;2022-08-14T03:46:05;11.60;;;9.77;;
13933;SDS011;7039;52.168;9.866;2022-08-14T03:48:31;9.40;;;8.50;;
13933;SDS011;7039;52.168;9.866;2022-08-14T03:50:58;11.07;;;9.63;;
13933;SDS011;7039;52.168;9.866;2022-08-14T03:53:24;11.33;;;9.60;;
13933;SDS011;7039;52.168;9.866;2022-08-14T03:55:51;10.60;;;9.50;;
13933;SDS011;7039;52.168;9.866;2022-08-14T03:58:24;10.70;;;9.20;;
13933;SDS011;7039;52.168;9.866;2022-08-14T04:00:50;10.77;;;9.67;;
13933;SDS011;7039;52.168;9.866;2022-08-14T04:03:17;9.53;;;8.63;;
13933;SDS011;7039;52.168;9.866;2022-08-14T04:05:44;11.67;;;9.10;;
13933;SDS011;7039;52.168;9.866;2022-08-14T04:08:10;10.30;;;9.20;;
13933;SDS011;7039;52.168;9.866;2022-08-14T04:10:36;11.93;;;9.33;;
13933;SDS011;7039;52.168;9.866;2022-08-14T04:13:04;10.17;;;9.17;;
13933;SDS011;7039;52.168;9.866;2022-08-14T04:15:32;10.00;;;8.90;;
13933;SDS011;7039;52.168;9.866;2022-08-14T04:18:01;9.67;;;8.67;;
13933;SDS011;7039;52.168;9.866;2022-08-14T04:20:32;11.53;;;8.73;;
13933;SDS011;7039;52.168;9.866;2022-08-14T04:22:59;10.97;;;9.30;;
13933;SDS011;7039;52.168;9.866;2022-08-14T04:25:31;9.70;;;8.80;;
13933;SDS011;7039;52.168;9.866;2022-08-14T04:28:00;10.23;;;9.03;;
13933;SDS011;7039;52.168;9.866;2022-08-14T04:30:27;10.40;;;9.30;;
13933;SDS011;7039;52.168;9.866;2022-08-14T04:32:55;10.90;;;9.73;;
13933;SDS011;7039;52.168;9.866;2022-08-14T04:35:22;13.30;;;9.77;;
13933;SDS011;7039;52.168;9.866;2022-08-14T04:37:49;12.40;;;9.07;;
13933;SDS011;7039;52.168;9.866;2022-08-14T04:40:33;13.77;;;9.00;;
13933;SDS011;7039;52.168;9.866;2022-08-14T04:43:17;10.37;;;9.27;;
13933;SDS011;7039;52.168;9.866;2022-08-14T04:46:04;11.20;;;8.97;;
13933;SDS011;7039;52.168;9.866;2022-08-14T04:48:33;10.73;;;9.20;;
13933;SDS011;7039;52.168;9.866;2022-08-14T04:50:59;9.93;;;8.93;;
13933;SDS011;7039;52.168;9.866;2022-08-14T04:53:26;10.23;;;9.23;;
13933;SDS011;7039;52.168;9.866;2022-08-14T04:55:55;10.33;;;9.33;;
13933;SDS011;7039;52.168;9.866;2022-08-14T04:58:23;11.23;;;8.53;;
13933;SDS011;7039;52.168;9.866;2022-08-14T05:00:51;11.63;;;9.33;;
13933;SDS011;7039;52.168;9.866;2022-08-14T05:03:20;13.93;;;9.53;;
13933;SDS011;7039;52.168;9.866;2022-08-14T05:05:50;10.77;;;9.10;;
13933;SDS011;7039;52.168;9.866;2022-08-14T05:08:18;15.63;;;10.80;;
13933;SDS011;7039;52.168;9.866;2022-08-14T05:10:47;10.67;;;9.47;;
13933;SDS011;7039;52.168;9.866;2022-08-14T05:13:16;10.23;;;9.23;;
13933;SDS011;7039;52.168;9.866;2022-08-14T05:15:44;13.50;;;9.87;;
13933;SDS011;7039;52.168;9.866;2022-08-14T05:18:12;10.77;;;9.67;;
13933;SDS011;7039;52.168;9.866;2022-08-14T05:20:39;10.53;;;9.40;;
13933;SDS011;7039;52.168;9.866;2022-08-14T05:23:09;12.13;;;10.17;;
13933;SDS011;7039;52.168;9.866;2022-08-14T05:25:35;11.97;;;9.87;;
13933;SDS011;7039;52.168;9.866;2022-08-14T05:28:07;9.83;;;8.80;;
13933;SDS011;7039;52.168;9.866;2022-08-14T05:30:34;13.83;;;10.03;;
13933;SDS011;7039;52.168;9.866;2022-08-14T05:33:01;12.53;;;10.00;;
13933;SDS011;7039;52.168;9.866;2022-08-14T05:35:28;10.63;;;9.53;;
13933;SDS011;7039;52.168;9.866;2022-08-14T05:37:56;13.60;;;10.10;;
13933;SDS011;7039;52.168;9.866;2022-08-14T05:40:24;11.10;;;9.80;;
13933;SDS011;7039;52.168;9.866;2022-08-14T05:42:51;12.30;;;10.77;;
13933;SDS011;7039;52.168;9.866;2022-08-14T05:45:17;10.57;;;9.47;;
13933;SDS011;7039;52.168;9.866;2022-08-14T05:47:44;12.97;;;10.20;;
13933;SDS011;7039;52.168;9.866;2022-08-14T05:50:11;13.50;;;10.83;;
13933;SDS011;7039;52.168;9.866;2022-08-14T05:52:39;11.70;;;10.13;;
13933;SDS011;7039;52.168;9.866;2022-08-14T05:55:06;10.80;;;9.70;;
13933;SDS011;7039;52.168;9.866;2022-08-14T05:57:45;11.30;;;10.10;;
13933;SDS011;7039;52.168;9.866;2022-08-14T06:00:17;13.13;;;10.07;;
13933;SDS011;7039;52.168;9.866;2022-08-14T06:02:45;11.57;;;9.50;;
13933;SDS011;7039;52.168;9.866;2022-08-14T06:05:11;12.07;;;9.70;;
13933;SDS011;7039;52.168;9.866;2022-08-14T06:07:38;13.80;;;10.00;;
13933;SDS011;7039;52.168;9.866;2022-08-14T06:10:05;13.77;;;10.33;;
13933;SDS011;7039;52.168;9.866;2022-08-14T06:12:34;11.93;;;10.47;;
13933;SDS011;7039;52.168;9.866;2022-08-14T06:15:03;12.53;;;10.37;;
13933;SDS011;7039;52.168;9.866;2022-08-14T06:17:31;10.90;;;9.80;;
13933;SDS011;7039;52.168;9.866;2022-08-14T06:20:07;10.43;;;9.37;;
13933;SDS011;7039;52.168;9.866;2022-08-14T06:22:34;11.83;;;10.60;;
13933;SDS011;7039;52.168;9.866;2022-08-14T06:25:01;11.23;;;10.13;;
13933;SDS011;7039;52.168;9.866;2022-08-14T06:27:27;13.33;;;9.57;;
13933;SDS011;7039;52.168;9.866;2022-08-14T06:29:59;10.53;;;9.33;;
13933;SDS011;7039;52.168;9.866;2022-08-14T06:32:27;12.70;;;10.10;;
13933;SDS011;7039;52.168;9.866;2022-08-14T06:34:54;13.43;;;9.60;;
13933;SDS011;7039;52.168;9.866;2022-08-14T06:37:20;10.47;;;9.47;;
13933;SDS011;7039;52.168;9.866;2022-08-14T06:39:47;10.47;;;9.37;;
13933;SDS011;7039;52.168;9.866;2022-08-14T06:42:14;11.27;;;10.17;;
13933;SDS011;7039;52.168;9.866;2022-08-14T06:44:40;11.40;;;10.17;;
13933;SDS011;7039;52.168;9.866;2022-08-14T06:47:07;16.17;;;10.27;;
13933;SDS011;7039;52.168;9.866;2022-08-14T06:49:35;11.17;;;10.17;;
13933;SDS011;7039;52.168;9.866;2022-08-14T06:52:03;11.90;;;10.37;;
13933;SDS011;7039;52.168;9.866;2022-08-14T06:54:29;12.40;;;9.53;;
13933;SDS011;7039;52.168;9.866;2022-08-14T06:56:56;11.87;;;10.27;;
13933;SDS011;7039;52.168;9.866;2022-08-14T06:59:22;10.90;;;9.80;;
13933;SDS011;7039;52.168;9.866;2022-08-14T07:01:49;10.53;;;9.53;;
13933;SDS011;7039;52.168;9.866;2022-08-14T07:04:34;11.13;;;10.07;;
13933;SDS011;7039;52.168;9.866;2022-08-14T07:07:18;11.70;;;10.60;;
13933;SDS011;7039;52.168;9.866;2022-08-14T07:09:45;12.07;;;9.83;;
13933;SDS011;7039;52.168;9.866;2022-08-14T07:12:11;11.93;;;8.97;;
13933;SDS011;7039;52.168;9.866;2022-08-14T07:14:38;12.07;;;9.57;;
13933;SDS011;7039;52.168;9.866;2022-08-14T07:17:05;11.33;;;10.10;;
13933;SDS011;7039;52.168;9.866;2022-08-14T07:19:31;13.90;;;9.80;;
13933;SDS011;7039;52.168;9.866;2022-08-14T07:21:59;13.63;;;9.53;;
13933;SDS011;7039;52.168;9.866;2022-08-14T07:24:25;13.03;;;10.00;;
13933;SDS011;7039;52.168;9.866;2022-08-14T07:26:52;11.53;;;10.30;;
13933;SDS011;7039;52.168;9.866;2022-08-14T07:29:18;12.70;;;10.50;;
13933;SDS011;7039;52.168;9.866;2022-08-14T07:31:46;13.63;;;10.23;;
13933;SDS011;7039;52.168;9.866;2022-08-14T07:34:12;11.77;;;10.63;;
13933;SDS011;7039;52.168;9.866;2022-08-14T07:36:39;12.43;;;11.03;;
13933;SDS011;7039;52.168;9.866;2022-08-14T07:39:07;10.60;;;9.60;;
13933;SDS011;7039;52.168;9.866;2022-08-14T07:41:33;10.67;;;9.60;;
13933;SDS011;7039;52.168;9.866;2022-08-14T07:44:00;11.70;;;10.50;;
13933;SDS011;7039;52.168;9.866;2022-08-14T07:46:27;12.87;;;9.60;;
13933;SDS011;7039;52.168;9.866;2022-08-14T07:48:54;12.77;;;10.57;;
13933;SDS011;7039;52.168;9.866;2022-08-14T07:51:20;11.27;;;10.17;;
13933;SDS011;7039;52.168;9.866;2022-08-14T07:53:47;10.77;;;9.70;;
13933;SDS011;7039;52.168;9.866;2022-08-14T07:56:16;14.40;;;10.60;;
13933;SDS011;7039;52.168;9.866;2022-08-14T07:58:43;11.70;;;10.60;;
13933;SDS011;7039;52.168;9.866;2022-08-14T08:01:10;11.23;;;10.10;;
13933;SDS011;7039;52.168;9.866;2022-08-14T08:03:38;12.17;;;10.77;;
13933;SDS011;7039;52.168;9.866;2022-08-14T08:06:08;11.77;;;10.45;;
13933;SDS011;7039;52.168;9.866;2022-08-14T08:08:34;14.40;;;10.07;;
13933;SDS011;7039;52.168;9.866;2022-08-14T08:11:01;14.88;;;10.27;;
13933;SDS011;7039;52.168;9.866;2022-08-14T08:13:29;11.10;;;9.88;;
13933;SDS011;7039;52.168;9.866;2022-08-14T08:15:58;15.20;;;9.77;;
13933;SDS011;7039;52.168;9.866;2022-08-14T08:18:26;14.03;;;9.90;;
13933;SDS011;7039;52.168;9.866;2022-08-14T08:20:53;16.45;;;10.15;;
13933;SDS011;7039;52.168;9.866;2022-08-14T08:23:21;13.30;;;9.63;;
13933;SDS011;7039;52.168;9.866;2022-08-14T08:25:49;14.70;;;10.35;;
13933;SDS011;7039;52.168;9.866;2022-08-14T08:28:17;10.40;;;9.38;;
13933;SDS011;7039;52.168;9.866;2022-08-14T08:30:47;10.18;;;9.15;;
13933;SDS011;7039;52.168;9.866;2022-08-14T08:33:16;11.15;;;9.90;;
13933;SDS011;7039;52.168;9.866;2022-08-14T08:35:43;10.05;;;9.05;;
13933;SDS011;7039;52.168;9.866;2022-08-14T08:38:10;11.57;;;10.00;;
13933;SDS011;7039;52.168;9.866;2022-08-14T08:40:40;11.98;;;10.40;;
13933;SDS011;7039;52.168;9.866;2022-08-14T08:43:15;10.93;;;9.93;;
13933;SDS011;7039;52.168;9.866;2022-08-14T08:45:48;11.65;;;9.73;;
13933;SDS011;7039;52.168;9.866;2022-08-14T08:48:20;12.90;;;10.77;;
13933;SDS011;7039;52.168;9.866;2022-08-14T08:50:57;11.05;;;9.88;;
13933;SDS011;7039;52.168;9.866;2022-08-14T08:53:28;10.43;;;9.43;;
13933;SDS011;7039;52.168;9.866;2022-08-14T08:55:56;10.25;;;9.35;;
13933;SDS011;7039;52.168;9.866;2022-08-14T08:58:23;10.63;;;9.23;;
13933;SDS011;7039;52.168;9.866;2022-08-14T09:00:50;11.35;;;9.52;;
13933;SDS011;7039;52.168;9.866;2022-08-14T09:03:20;10.00;;;9.02;;
13933;SDS011;7039;52.168;9.866;2022-08-14T09:05:50;10.15;;;8.82;;
13933;SDS011;7039;52.168;9.866;2022-08-14T09:08:18;12.13;;;9.40;;
13933;SDS011;7039;52.168;9.866;2022-08-14T09:10:46;12.90;;;8.82;;
13933;SDS011;7039;52.168;9.866;2022-08-14T09:13:14;12.55;;;9.38;;
13933;SDS011;7039;52.168;9.866;2022-08-14T09:15:41;13.65;;;8.73;;
13933;SDS011;7039;52.168;9.866;2022-08-14T09:18:09;11.65;;;9.30;;
13933;SDS011;7039;52.168;9.866;2022-08-14T09:20:37;10.10;;;9.10;;
13933;SDS011;7039;52.168;9.866;2022-08-14T09:23:05;11.60;;;9.60;;
13933;SDS011;7039;52.168;9.866;2022-08-14T09:25:33;11.55;;;9.68;;
13933;SDS011;7039;52.168;9.866;2022-08-14T09:28:01;12.10;;;9.50;;
13933;SDS011;7039;52.168;9.866;2022-08-14T09:30:28;9.60;;;8.70;;
13933;SDS011;7039;52.168;9.866;2022-08-14T09:33:04;11.68;;;8.77;;
13933;SDS011;7039;52.168;9.866;2022-08-14T09:35:46;9.77;;;8.57;;
13933;SDS011;7039;52.168;9.866;2022-08-14T09:38:23;10.43;;;9.00;;
13933;SDS011;7039;52.168;9.866;2022-08-14T09:40:58;10.95;;;9.32;;
13933;SDS011;7039;52.168;9.866;2022-08-14T09:43:41;10.05;;;9.15;;
13933;SDS011;7039;52.168;9.866;2022-08-14T09:46:11;10.10;;;9.10;;
13933;SDS011;7039;52.168;9.866;2022-08-14T09:48:39;10.30;;;9.30;;
13933;SDS011;7039;52.168;9.866;2022-08-14T09:51:07;10.02;;;9.07;;
13933;SDS011;7039;52.168;9.866;2022-08-14T09:53:47;9.95;;;8.95;;
13933;SDS011;7039;52.168;9.866;2022-08-14T09:56:26;9.82;;;8.55;;
13933;SDS011;7039;52.168;9.866;2022-08-14T09:58:53;10.95;;;8.90;;
13933;SDS011;7039;52.168;9.866;2022-08-14T10:01:23;13.35;;;9.73;;
13933;SDS011;7039;52.168;9.866;2022-08-14T10:04:01;9.57;;;8.55;;
13933;SDS011;7039;52.168;9.866;2022-08-14T10:06:41;11.30;;;9.27;;
13933;SDS011;7039;52.168;9.866;2022-08-14T10:09:09;10.40;;;9.48;;
13933;SDS011;7039;52.168;9.866;2022-08-14T10:11:37;14.68;;;9.23;;
13933;SDS011;7039;52.168;9.866;2022-08-14T10:14:11;9.70;;;8.75;;
13933;SDS011;7039;52.168;9.866;2022-08-14T10:16:41;11.38;;;9.65;;
13933;SDS011;7039;52.168;9.866;2022-08-14T10:19:09;10.48;;;9.45;;
13933;SDS011;7039;52.168;9.866;2022-08-14T10:21:39;10.63;;;9.25;;
13933;SDS011;7039;52.168;9.866;2022-08-14T10:24:08;11.05;;;8.82;;
13933;SDS011;7039;52.168;9.866;2022-08-14T10:26:37;10.27;;;9.32;;
13933;SDS011;7039;52.168;9.866;2022-08-14T10:29:05;9.68;;;8.40;;
13933;SDS011;7039;52.168;9.866;2022-08-14T10:31:33;11.60;;;8.98;;
13933;SDS011;7039;52.168;9.866;2022-08-14T10:34:02;10.90;;;8.77;;
13933;SDS011;7039;52.168;9.866;2022-08-14T10:36:31;10.95;;;8.95;;
13933;SDS011;7039;52.168;9.866;2022-08-14T10:39:02;10.38;;;9.23;;
13933;SDS011;7039;52.168;9.866;2022-08-14T10:41:38;9.95;;;8.88;;
13933;SDS011;7039;52.168;9.866;2022-08-14T10:44:07;9.82;;;8.82;;
13933;SDS011;7039;52.168;9.866;2022-08-14T10:46:39;9.77;;;8.85;;
13933;SDS011;7039;52.168;9.866;2022-08-14T10:49:15;10.55;;;8.80;;
13933;SDS011;7039;52.168;9.866;2022-08-14T10:51:53;9.55;;;8.65;;
13933;SDS011;7039;52.168;9.866;2022-08-14T10:54:29;10.40;;;8.85;;
13933;SDS011;7039;52.168;9.866;2022-08-14T10:56:58;9.02;;;7.80;;
13933;SDS011;7039;52.168;9.866;2022-08-14T10:59:46;9.15;;;7.82;;
13933;SDS011;7039;52.168;9.866;2022-08-14T11:02:25;11.35;;;8.50;;
13933;SDS011;7039;52.168;9.866;2022-08-14T11:05:04;10.73;;;8.82;;
13933;SDS011;7039;52.168;9.866;2022-08-14T11:07:33;10.38;;;8.50;;
13933;SDS011;7039;52.168;9.866;2022-08-14T11:10:05;9.43;;;8.43;;
13933;SDS011;7039;52.168;9.866;2022-08-14T11:12:41;9.68;;;8.70;;
13933;SDS011;7039;52.168;9.866;2022-08-14T11:15:12;9.68;;;8.80;;
13933;SDS011;7039;52.168;9.866;2022-08-14T11:17:40;9.57;;;8.57;;
13933;SDS011;7039;52.168;9.866;2022-08-14T11:20:08;9.32;;;8.35;;
13933;SDS011;7039;52.168;9.866;2022-08-14T11:22:37;9.57;;;8.63;;
13933;SDS011;7039;52.168;9.866;2022-08-14T11:25:09;9.55;;;8.40;;
13933;SDS011;7039;52.168;9.866;2022-08-14T11:27:45;9.60;;;8.60;;
13933;SDS011;7039;52.168;9.866;2022-08-14T11:30:13;12.30;;;9.23;;
13933;SDS011;7039;52.168;9.866;2022-08-14T11:32:42;9.85;;;8.38;;
13933;SDS011;7039;52.168;9.866;2022-08-14T11:35:10;12.13;;;9.48;;
13933;SDS011;7039;52.168;9.866;2022-08-14T11:37:47;9.40;;;8.30;;
13933;SDS011;7039;52.168;9.866;2022-08-14T11:40:16;11.68;;;8.77;;
13933;SDS011;7039;52.168;9.866;2022-08-14T11:42:44;10.27;;;8.73;;
13933;SDS011;7039;52.168;9.866;2022-08-14T11:45:12;12.25;;;8.93;;
13933;SDS011;7039;52.168;9.866;2022-08-14T11:47:39;9.65;;;8.70;;
13933;SDS011;7039;52.168;9.866;2022-08-14T11:50:15;9.82;;;8.45;;
13933;SDS011;7039;52.168;9.866;2022-08-14T11:52:43;9.38;;;8.57;;
13933;SDS011;7039;52.168;9.866;2022-08-14T11:55:11;9.73;;;8.68;;
13933;SDS011;7039;52.168;9.866;2022-08-14T11:57:41;8.40;;;7.60;;
13933;SDS011;7039;52.168;9.866;2022-08-14T12:00:10;12.20;;;8.10;;
13933;SDS011;7039;52.168;9.866;2022-08-14T12:02:48;9.38;;;8.18;;
13933;SDS011;7039;52.168;9.866;2022-08-14T12:05:26;12.32;;;8.30;;
13933;SDS011;7039;52.168;9.866;2022-08-14T12:07:54;11.60;;;8.27;;
13933;SDS011;7039;52.168;9.866;2022-08-14T12:10:21;13.52;;;8.88;;
13933;SDS011;7039;52.168;9.866;2022-08-14T12:12:49;13.82;;;8.55;;
13933;SDS011;7039;52.168;9.866;2022-08-14T12:15:26;12.88;;;8.38;;
13933;SDS011;7039;52.168;9.866;2022-08-14T12:17:54;10.73;;;9.18;;
13933;SDS011;7039;52.168;9.866;2022-08-14T12:20:27;12.70;;;8.52;;
13933;SDS011;7039;52.168;9.866;2022-08-14T12:22:54;9.60;;;8.70;;
13933;SDS011;7039;52.168;9.866;2022-08-14T12:25:22;14.55;;;9.07;;
13933;SDS011;7039;52.168;9.866;2022-08-14T12:27:50;11.15;;;9.15;;
13933;SDS011;7039;52.168;9.866;2022-08-14T12:30:29;9.57;;;8.65;;
13933;SDS011;7039;52.168;9.866;2022-08-14T12:32:59;9.25;;;8.35;;
13933;SDS011;7039;52.168;9.866;2022-08-14T12:35:37;9.02;;;8.23;;
13933;SDS011;7039;52.168;9.866;2022-08-14T12:38:05;8.70;;;7.97;;
13933;SDS011;7039;52.168;9.866;2022-08-14T12:40:32;10.48;;;8.77;;
13933;SDS011;7039;52.168;9.866;2022-08-14T12:43:01;9.68;;;8.55;;
13933;SDS011;7039;52.168;9.866;2022-08-14T12:45:29;9.25;;;8.35;;
13933;SDS011;7039;52.168;9.866;2022-08-14T12:47:58;11.50;;;8.75;;
13933;SDS011;7039;52.168;9.866;2022-08-14T12:50:33;10.02;;;9.00;;
13933;SDS011;7039;52.168;9.866;2022-08-14T12:53:00;13.07;;;8.48;;
13933;SDS011;7039;52.168;9.866;2022-08-14T12:55:27;10.27;;;9.18;;
13933;SDS011;7039;52.168;9.866;2022-08-14T12:57:56;9.90;;;8.90;;
13933;SDS011;7039;52.168;9.866;2022-08-14T13:00:26;9.60;;;8.80;;
13933;SDS011;7039;52.168;9.866;2022-08-14T13:02:53;10.85;;;9.13;;
13933;SDS011;7039;52.168;9.866;2022-08-14T13:05:21;9.38;;;8.43;;
13933;SDS011;7039;52.168;9.866;2022-08-14T13:07:49;9.50;;;8.60;;
13933;SDS011;7039;52.168;9.866;2022-08-14T13:10:17;9.35;;;8.52;;
13933;SDS011;7039;52.168;9.866;2022-08-14T13:12:46;9.63;;;8.75;;
13933;SDS011;7039;52.168;9.866;2022-08-14T13:15:13;9.45;;;8.63;;
13933;SDS011;7039;52.168;9.866;2022-08-14T13:17:43;9.40;;;8.55;;
13933;SDS011;7039;52.168;9.866;2022-08-14T13:20:12;9.60;;;8.63;;
13933;SDS011;7039;52.168;9.866;2022-08-14T13:22:40;9.02;;;8.20;;
13933;SDS011;7039;52.168;9.866;2022-08-14T13:25:09;9.98;;;9.18;;
13933;SDS011;7039;52.168;9.866;2022-08-14T13:27:36;10.25;;;9.07;;
13933;SDS011;7039;52.168;9.866;2022-08-14T13:34:59;10.65;;;9.00;;
13933;SDS011;7039;52.168;9.866;2022-08-14T13:37:26;9.48;;;8.48;;
13933;SDS011;7039;52.168;9.866;2022-08-14T13:39:54;8.85;;;8.02;;
13933;SDS011;7039;52.168;9.866;2022-08-14T13:42:21;10.18;;;8.80;;
13933;SDS011;7039;52.168;9.866;2022-08-14T13:44:48;9.98;;;8.48;;
13933;SDS011;7039;52.168;9.866;2022-08-14T13:47:20;11.35;;;8.65;;
13933;SDS011;7039;52.168;9.866;2022-08-14T13:49:48;13.52;;;8.35;;
13933;SDS011;7039;52.168;9.866;2022-08-14T13:52:18;8.60;;;7.80;;
13933;SDS011;7039;52.168;9.866;2022-08-14T13:54:47;9.35;;;8.32;;
13933;SDS011;7039;52.168;9.866;2022-08-14T13:57:16;9.15;;;8.25;;
13933;SDS011;7039;52.168;9.866;2022-08-14T13:59:43;9.03;;;7.90;;
13933;SDS011;7039;52.168;9.866;2022-08-14T14:02:11;9.18;;;8.27;;
13933;SDS011;7039;52.168;9.866;2022-08-14T14:04:42;8.57;;;7.78;;
13933;SDS011;7039;52.168;9.866;2022-08-14T14:07:11;8.05;;;7.35;;
13933;SDS011;7039;52.168;9.866;2022-08-14T14:09:44;8.93;;;7.97;;
13933;SDS011;7039;52.168;9.866;2022-08-14T14:12:12;9.13;;;8.15;;
13933;SDS011;7039;52.168;9.866;2022-08-14T14:14:40;9.60;;;8.60;;
13933;SDS011;7039;52.168;9.866;2022-08-14T14:17:11;9.25;;;8.35;;
13933;SDS011;7039;52.168;9.866;2022-08-14T14:19:39;9.40;;;8.05;;
13933;SDS011;7039;52.168;9.866;2022-08-14T14:22:07;10.43;;;8.68;;
13933;SDS011;7039;52.168;9.866;2022-08-14T14:24:34;9.02;;;8.18;;
13933;SDS011;7039;52.168;9.866;2022-08-14T14:27:03;12.88;;;8.38;;
13933;SDS011;7039;52.168;9.866;2022-08-14T14:29:30;8.77;;;7.82;;
13933;SDS011;7039;52.168;9.866;2022-08-14T14:31:58;9.00;;;7.63;;
13933;SDS011;7039;52.168;9.866;2022-08-14T14:34:26;8.50;;;7.80;;
13933;SDS011;7039;52.168;9.866;2022-08-14T14:36:58;10.13;;;8.25;;
13933;SDS011;7039;52.168;9.866;2022-08-14T14:39:29;9.15;;;8.27;;
13933;SDS011;7039;52.168;9.866;2022-08-14T14:41:57;9.18;;;7.47;;
13933;SDS011;7039;52.168;9.866;2022-08-14T14:44:26;8.20;;;7.45;;
13933;SDS011;7039;52.168;9.866;2022-08-14T14:46:57;8.68;;;7.85;;
13933;SDS011;7039;52.168;9.866;2022-08-14T14:49:25;10.40;;;7.88;;
13933;SDS011;7039;52.168;9.866;2022-08-14T14:51:54;9.45;;;8.52;;
13933;SDS011;7039;52.168;9.866;2022-08-14T14:54:21;9.65;;;8.30;;
13933;SDS011;7039;52.168;9.866;2022-08-14T14:56:48;8.70;;;7.90;;
13933;SDS011;7039;52.168;9.866;2022-08-14T14:59:16;8.88;;;7.72;;
13933;SDS011;7039;52.168;9.866;2022-08-14T15:01:46;8.45;;;7.65;;
13933;SDS011;7039;52.168;9.866;2022-08-14T15:04:15;9.43;;;7.22;;
13933;SDS011;7039;52.168;9.866;2022-08-14T15:06:41;8.25;;;7.55;;